Terminal Aerodrome Forecast
Issued by NWS

Home | Current Version | Previous Version | Text Only | Print | Product List | Glossary On
Versions: 1 2 3 4 5 6 7 8 9 10 11 12 13 14 15 16 17
871
FTUS44 KLZK 221720
TAFHOT
TAF
KHOT 221720Z 2218/2318 17007KT P6SM SCT040
     FM230000 11002KT P6SM SKC
      TEMPO 2310/2314 5SM BR
     FM231400 14006KT P6SM SCT040 SCT250=

USA.gov is the U.S. government's official web portal to all federal, state and local government web resources and services.